Weather at La Guardia Airport

Public forecast

Using degrees Fahrenheit for public forecast. Weather courtesy of forecast.io.

Current aviation weather report (METAR) for La Guardia Airport

Report is more than 6 hours old.

Retrieved 2022/09/17 18:51 UTC (18 days ago):

KLGA 171851Z 13006KT 10SM FEW032 BKN040 BKN250 23/12 A3023 RMK AO2 SLP236 T02280122

Aviation forecast (TAF) for La Guardia Airport

Forecast is more than 12 hours old.

Retrieved 2022/09/17 18:27 UTC (18 days ago):

TAF KLGA 171724Z 1718/1824 07009KT P6SM FEW050 SCT250 FM172100 13009KT P6SM FEW050 SCT250 FM180300 21007KT P6SM SCT250 FM181300 24012KT P6SM BKN250 FM181800 21013G18KT P6SM FEW050